createdAt,value
2023-03-11T00:00:17.074Z,98479.41
2023-03-11T00:02:45.255Z,98495.38
2023-03-11T00:05:15.410Z,98506.44
2023-03-11T00:07:42.995Z,98524.28
2023-03-11T00:10:16.666Z,98529.13
2023-03-11T00:12:44.517Z,98533.16
2023-03-11T00:15:16.357Z,98540.88
2023-03-11T00:17:43.993Z,98544.13
2023-03-11T00:20:18.590Z,98554.31
2023-03-11T00:22:46.665Z,98567.88
2023-03-11T00:25:15.019Z,98568.66
2023-03-11T00:27:42.459Z,98569.91
2023-03-11T00:30:11.920Z,98581.84
2023-03-11T00:32:41.084Z,98579.88
2023-03-11T00:35:10.187Z,98587.84
2023-03-11T00:37:37.672Z,98593.09
2023-03-11T00:40:08.535Z,98594.66
2023-03-11T00:42:35.964Z,98602.63
2023-03-11T00:45:03.409Z,98599.50
2023-03-11T00:47:30.849Z,98619.75
2023-03-11T00:49:59.677Z,98614.53
2023-03-11T00:52:27.115Z,98622.94
2023-03-11T00:54:54.517Z,98627.94
2023-03-11T00:57:21.985Z,98628.91
2023-03-11T00:59:49.436Z,98634.97
2023-03-11T01:02:16.991Z,98639.03
2023-03-11T01:04:44.632Z,98654.28
2023-03-11T01:07:13.405Z,98658.69
2023-03-11T01:09:40.896Z,98668.72
2023-03-11T01:12:08.384Z,98672.97
2023-03-11T01:14:35.809Z,98680.41
2023-03-11T01:17:03.228Z,98692.09
2023-03-11T01:19:30.675Z,98698.75
2023-03-11T01:21:58.188Z,98708.13
2023-03-11T01:24:27.023Z,98712.31
2023-03-11T01:26:54.449Z,98719.97
2023-03-11T01:29:21.868Z,98733.03
2023-03-11T01:31:49.392Z,98732.91
2023-03-11T01:34:16.843Z,98750.75
2023-03-11T01:36:44.289Z,98750.03
2023-03-11T01:39:11.692Z,98754.88
2023-03-11T01:41:40.807Z,98763.34
2023-03-11T01:44:08.614Z,98768.41
2023-03-11T01:47:00.162Z,98778.38
2023-03-11T01:49:27.742Z,98790.34
2023-03-11T01:51:58.446Z,98797.38
2023-03-11T01:54:29.470Z,98809.69
2023-03-11T01:57:00.103Z,98808.94
2023-03-11T01:59:31.768Z,98820.72
2023-03-11T02:02:06.134Z,98827.34
2023-03-11T02:04:35.362Z,98833.28
2023-03-11T02:07:04.131Z,98844.44
2023-03-11T02:09:31.690Z,98849.31
2023-03-11T02:12:00.760Z,98859.59
2023-03-11T02:14:30.578Z,98871.56
2023-03-11T02:16:59.291Z,98873.03
2023-03-11T02:19:35.269Z,98889.94
2023-03-11T02:22:03.397Z,98901.03
2023-03-11T02:24:40.081Z,98912.03
2023-03-11T02:27:11.291Z,98926.75
2023-03-11T02:29:39.502Z,98932.38
2023-03-11T02:32:09.769Z,98946.53
2023-03-11T02:34:39.492Z,98955.09
2023-03-11T02:37:09.364Z,98961.03
2023-03-11T02:39:38.460Z,98959.25
2023-03-11T02:42:13.375Z,98978.06
2023-03-11T02:44:45.047Z,98981.50
2023-03-11T02:47:12.668Z,98994.13
2023-03-11T02:49:40.163Z,98998.63
2023-03-11T02:52:07.773Z,99017.28
2023-03-11T02:54:35.246Z,99015.41
2023-03-11T02:57:02.762Z,99028.66
2023-03-11T02:59:31.477Z,99038.81
2023-03-11T03:01:59.000Z,99048.13
2023-03-11T03:04:26.504Z,99056.19
2023-03-11T03:06:53.962Z,99062.59
2023-03-11T03:09:21.415Z,99074.16
2023-03-11T03:11:48.881Z,99082.81
2023-03-11T03:14:16.571Z,99094.72
2023-03-11T03:16:45.439Z,99104.88
2023-03-11T03:19:12.949Z,99108.91
2023-03-11T03:21:41.264Z,99117.59
2023-03-11T03:24:08.864Z,99127.34
2023-03-11T03:26:37.192Z,99135.66
2023-03-11T03:29:04.922Z,99145.25
2023-03-11T03:31:32.825Z,99150.34
2023-03-11T03:34:01.692Z,99169.59
2023-03-11T03:36:29.115Z,99173.34
2023-03-11T03:38:56.897Z,99180.75
2023-03-11T03:41:24.801Z,99192.69
2023-03-11T03:43:52.676Z,99198.59
2023-03-11T03:46:20.242Z,99220.50
2023-03-11T03:48:47.847Z,99230.00
2023-03-11T03:51:16.977Z,99233.03
2023-03-11T03:53:46.452Z,99248.66
2023-03-11T03:56:19.144Z,99247.75
2023-03-11T03:58:46.592Z,99250.06
2023-03-11T04:01:15.260Z,99259.31
2023-03-11T04:03:42.807Z,99275.63
2023-03-11T04:06:12.352Z,99280.66
2023-03-11T04:08:41.415Z,99290.03
2023-03-11T04:11:09.084Z,99298.66
2023-03-11T04:13:36.682Z,99296.78
2023-03-11T04:16:05.223Z,99309.59
2023-03-11T04:18:32.799Z,99321.38
2023-03-11T04:21:00.292Z,99314.47
2023-03-11T04:23:27.755Z,99329.69
2023-03-11T04:25:56.539Z,99332.22
2023-03-11T04:28:24.198Z,99339.69
2023-03-11T04:30:51.709Z,99347.44
2023-03-11T04:33:19.144Z,99350.66
2023-03-11T04:35:46.612Z,99355.09
2023-03-11T04:38:14.355Z,99369.44
2023-03-11T04:40:41.862Z,99375.06
2023-03-11T04:43:10.579Z,99376.81
2023-03-11T04:45:39.228Z,99383.91
2023-03-11T04:48:06.742Z,99397.78
2023-03-11T04:50:34.162Z,99401.47
2023-03-11T04:53:01.848Z,99412.69
2023-03-11T04:55:29.363Z,99407.38
2023-03-11T04:57:56.794Z,99421.19
2023-03-11T05:00:25.606Z,99424.53
2023-03-11T05:02:53.431Z,99435.19
2023-03-11T05:05:20.899Z,99435.06
2023-03-11T05:07:49.029Z,99448.44
2023-03-11T05:10:22.180Z,99451.19
2023-03-11T05:12:49.753Z,99452.63
2023-03-11T05:15:17.342Z,99465.81
2023-03-11T05:17:46.632Z,99482.47
2023-03-11T05:20:15.840Z,99486.63
2023-03-11T05:22:43.712Z,99490.59
2023-03-11T05:25:11.270Z,99494.38
2023-03-11T05:27:38.757Z,99504.44
2023-03-11T05:30:07.378Z,99502.91
2023-03-11T05:32:34.880Z,99515.97
2023-03-11T05:35:03.752Z,99524.81
2023-03-11T05:37:32.119Z,99528.03
2023-03-11T05:39:59.563Z,99530.56
2023-03-11T05:42:27.078Z,99544.16
2023-03-11T05:44:54.567Z,99552.34
2023-03-11T05:47:21.975Z,99552.63
2023-03-11T05:49:49.829Z,99555.34
2023-03-11T05:52:18.643Z,99571.72
2023-03-11T05:54:46.069Z,99571.13
2023-03-11T05:57:13.488Z,99577.88
2023-03-11T05:59:41.557Z,99580.94
2023-03-11T06:02:09.006Z,99580.88
2023-03-11T06:04:36.800Z,99588.16
2023-03-11T06:07:04.588Z,99589.50
2023-03-11T06:09:36.841Z,99597.09
2023-03-11T06:12:04.388Z,99606.63
2023-03-11T06:14:33.627Z,99605.06
2023-03-11T06:17:01.076Z,99614.91
2023-03-11T06:19:28.505Z,99617.03
2023-03-11T06:21:55.972Z,99613.91
2023-03-11T06:24:23.413Z,99629.19
2023-03-11T06:26:53.542Z,99633.56
2023-03-11T06:29:21.858Z,99633.94
2023-03-11T06:31:49.413Z,99649.59
2023-03-11T06:34:16.934Z,99655.47
2023-03-11T06:36:44.388Z,99665.53
2023-03-11T06:39:14.364Z,99675.31
2023-03-11T06:41:42.659Z,99670.34
2023-03-11T06:44:12.249Z,99676.63
2023-03-11T06:46:40.301Z,99686.44
2023-03-11T06:49:07.979Z,99696.16
2023-03-11T06:51:35.421Z,99715.41
2023-03-11T06:54:02.917Z,99720.31
2023-03-11T06:56:31.919Z,99723.22
2023-03-11T06:58:59.340Z,99730.44
2023-03-11T07:01:28.702Z,99741.97
2023-03-11T07:03:56.199Z,99734.13
2023-03-11T07:06:25.192Z,99753.19
2023-03-11T07:08:54.342Z,99736.44
2023-03-11T07:11:24.010Z,99751.06
2023-03-11T07:13:51.740Z,99747.78
2023-03-11T07:16:22.373Z,99757.47
2023-03-11T07:18:52.569Z,99773.06
2023-03-11T07:21:22.544Z,99777.03
2023-03-11T07:23:54.304Z,99777.03
2023-03-11T07:26:22.236Z,99791.75
2023-03-11T07:28:50.183Z,99800.09
2023-03-11T07:31:19.967Z,99814.59
2023-03-11T07:33:47.824Z,99813.88
2023-03-11T07:36:19.878Z,99820.09
2023-03-11T07:38:47.987Z,99829.13
2023-03-11T07:41:16.687Z,99831.81
2023-03-11T07:43:44.621Z,99840.66
2023-03-11T07:46:14.045Z,99842.28
2023-03-11T07:48:41.796Z,99845.47
2023-03-11T07:51:12.776Z,99864.09
2023-03-11T07:53:41.728Z,99862.25
2023-03-11T07:56:11.348Z,99867.91
2023-03-11T07:58:39.176Z,99876.63
2023-03-11T08:01:08.213Z,99876.97
2023-03-11T08:03:35.727Z,99883.84
2023-03-11T08:06:03.675Z,99894.00
2023-03-11T08:08:31.257Z,99896.94
2023-03-11T08:11:03.996Z,99904.13
2023-03-11T08:13:31.469Z,99903.81
2023-03-11T08:15:58.944Z,99910.31
2023-03-11T08:18:26.361Z,99914.56
2023-03-11T08:20:55.314Z,99917.00
2023-03-11T08:23:22.711Z,99926.66
2023-03-11T08:25:50.126Z,99929.56
2023-03-11T08:28:18.885Z,99942.66
2023-03-11T08:30:46.369Z,99946.59
2023-03-11T08:33:13.846Z,99958.50
2023-03-11T08:35:41.530Z,99959.97
2023-03-11T08:38:09.803Z,99964.06
2023-03-11T08:40:37.362Z,99965.94
2023-03-11T08:43:04.823Z,99970.75
2023-03-11T08:45:33.575Z,99980.28
2023-03-11T08:48:01.352Z,99984.97
2023-03-11T08:50:28.823Z,99990.59
2023-03-11T08:53:00.352Z,100000.16
2023-03-11T08:55:28.544Z,100003.34
2023-03-11T08:57:56.757Z,100000.53
2023-03-11T09:00:24.499Z,100005.13
2023-03-11T09:02:53.631Z,100012.81
2023-03-11T09:05:21.162Z,100019.81
2023-03-11T09:07:48.562Z,100014.84
2023-03-11T09:10:17.553Z,100019.31
2023-03-11T09:12:45.277Z,100019.66
2023-03-11T09:15:12.886Z,100035.81
2023-03-11T09:17:40.405Z,100031.69
2023-03-11T09:20:12.926Z,100042.31
2023-03-11T09:22:40.404Z,100041.03
2023-03-11T09:25:09.065Z,100045.19
2023-03-11T09:27:36.485Z,100047.41
2023-03-11T09:30:04.168Z,100055.84
2023-03-11T09:32:31.741Z,100050.19
2023-03-11T09:35:00.175Z,100051.19
2023-03-11T09:37:30.190Z,100059.94
2023-03-11T09:39:57.707Z,100068.00
2023-03-11T09:42:34.992Z,100072.06
2023-03-11T09:45:09.260Z,100073.84
2023-03-11T09:47:48.010Z,100080.38
2023-03-11T09:50:21.907Z,100086.50
2023-03-11T09:53:03.609Z,100083.44
2023-03-11T09:55:37.278Z,100091.91
2023-03-11T09:58:11.937Z,100102.06
2023-03-11T10:00:40.579Z,100098.72
2023-03-11T10:03:16.834Z,100099.31
2023-03-11T10:05:46.345Z,100108.44
2023-03-11T10:08:24.068Z,100109.09
2023-03-11T10:10:58.543Z,100112.66
2023-03-11T10:13:31.659Z,100115.53
2023-03-11T10:16:05.373Z,100118.22
2023-03-11T10:19:01.594Z,100107.81
2023-03-11T10:21:42.026Z,100126.97
2023-03-11T10:24:35.414Z,100132.09
2023-03-11T10:27:07.603Z,100128.19
2023-03-11T10:29:51.412Z,100140.13
2023-03-11T10:32:25.625Z,100137.56
2023-03-11T10:34:58.179Z,100144.56
2023-03-11T10:37:38.838Z,100156.13
2023-03-11T10:40:24.009Z,100165.00
2023-03-11T10:42:52.818Z,100160.31
2023-03-11T10:45:23.323Z,100165.41
2023-03-11T10:47:51.366Z,100168.47
2023-03-11T10:50:21.081Z,100163.47
2023-03-11T10:53:10.366Z,100171.50
2023-03-11T10:55:47.694Z,100178.69
2023-03-11T10:58:17.583Z,100169.78
2023-03-11T11:00:46.453Z,100179.28
2023-03-11T11:03:21.992Z,100191.31
2023-03-11T11:06:00.336Z,100185.97
2023-03-11T11:08:28.339Z,100191.34
2023-03-11T11:10:59.600Z,100194.63
2023-03-11T11:13:30.147Z,100188.91
2023-03-11T11:16:01.412Z,100202.03
2023-03-11T11:18:32.109Z,100199.91
2023-03-11T11:21:03.192Z,100192.38
2023-03-11T11:23:35.654Z,100199.25
2023-03-11T11:26:06.883Z,100193.22
2023-03-11T11:28:34.892Z,100199.47
2023-03-11T11:31:04.526Z,100205.16
2023-03-11T11:33:34.291Z,100202.53
2023-03-11T11:36:04.780Z,100203.97
2023-03-11T11:38:33.852Z,100206.50
2023-03-11T11:41:06.388Z,100205.06
2023-03-11T11:43:42.712Z,100201.06
2023-03-11T11:46:19.602Z,100213.72
2023-03-11T11:48:53.599Z,100206.16
2023-03-11T11:51:25.804Z,100212.69
2023-03-11T11:54:00.111Z,100197.50
2023-03-11T11:56:29.133Z,100212.06
2023-03-11T11:58:56.613Z,100211.13
2023-03-11T12:01:38.475Z,100212.31
2023-03-11T12:04:36.768Z,100213.50
2023-03-11T12:07:19.994Z,100215.78
2023-03-11T12:09:53.992Z,100216.28
2023-03-11T12:12:28.978Z,100221.25
2023-03-11T12:15:03.629Z,100223.69
2023-03-11T12:17:32.719Z,100225.44
2023-03-11T12:20:04.191Z,100220.59
2023-03-11T12:22:53.591Z,100233.34
2023-03-11T12:25:37.623Z,100227.38
2023-03-11T12:28:17.620Z,100236.75
2023-03-11T12:30:48.113Z,100234.69
2023-03-11T12:33:20.558Z,100235.09
2023-03-11T12:35:55.875Z,100239.63
2023-03-11T12:38:32.871Z,100238.84
2023-03-11T12:41:04.609Z,100245.63
2023-03-11T12:44:05.239Z,100257.56
2023-03-11T12:47:10.177Z,100257.50
2023-03-11T12:49:39.040Z,100268.03
2023-03-11T12:52:31.104Z,100250.28
2023-03-11T12:55:31.565Z,100252.59
2023-03-11T12:58:17.309Z,100251.72
2023-03-11T13:00:59.995Z,100254.66
2023-03-11T13:03:50.170Z,100266.63
2023-03-11T13:06:33.479Z,100271.19
2023-03-11T13:09:01.418Z,100262.38
2023-03-11T13:11:46.574Z,100266.25
2023-03-11T13:14:29.509Z,100265.31
2023-03-11T13:17:18.935Z,100280.50
2023-03-11T13:19:53.696Z,100282.94
2023-03-11T13:22:44.303Z,100286.88
2023-03-11T13:25:30.727Z,100280.56
2023-03-11T13:28:09.014Z,100273.00
2023-03-11T13:30:41.216Z,100280.53
2023-03-11T13:33:14.051Z,100281.84
2023-03-11T13:35:55.107Z,100289.25
2023-03-11T13:38:40.770Z,100299.06
2023-03-11T13:41:17.260Z,100296.22
2023-03-11T13:43:46.771Z,100299.44
2023-03-11T13:46:21.508Z,100309.31
2023-03-11T13:48:51.860Z,100317.25
2023-03-11T13:51:26.451Z,100308.63
2023-03-11T13:53:58.497Z,100324.47
2023-03-11T13:56:28.917Z,100326.03
2023-03-11T13:59:16.794Z,100333.13
2023-03-11T14:01:50.143Z,100338.41
2023-03-11T14:04:24.558Z,100334.47
2023-03-11T14:06:53.675Z,100334.66
2023-03-11T14:09:27.425Z,100331.69
2023-03-11T14:11:57.361Z,100347.69
2023-03-11T14:14:47.733Z,100347.94
2023-03-11T14:17:17.652Z,100340.16
2023-03-11T14:20:04.581Z,100346.88
2023-03-11T14:22:33.622Z,100343.81
2023-03-11T14:25:06.981Z,100345.66
2023-03-11T14:27:34.443Z,100351.56
2023-03-11T14:30:01.928Z,100346.44
2023-03-11T14:32:31.279Z,100353.22
2023-03-11T14:34:59.217Z,100359.09
2023-03-11T14:37:32.165Z,100355.63
2023-03-11T14:40:01.109Z,100352.28
2023-03-11T14:42:33.105Z,100358.38
2023-03-11T14:45:05.174Z,100367.56
2023-03-11T14:47:39.711Z,100360.53
2023-03-11T14:50:15.367Z,100374.03
2023-03-11T14:52:46.848Z,100370.94
2023-03-11T14:55:20.148Z,100374.22
2023-03-11T14:57:50.654Z,100371.84
2023-03-11T15:00:22.770Z,100370.06
2023-03-11T15:03:04.083Z,100379.00
2023-03-11T15:05:39.524Z,100374.44
2023-03-11T15:08:08.276Z,100389.56
2023-03-11T15:10:37.734Z,100380.56
2023-03-11T15:13:14.519Z,100381.97
2023-03-11T15:15:42.697Z,100381.38
2023-03-11T15:18:23.494Z,100382.94
2023-03-11T15:21:04.355Z,100378.22
2023-03-11T15:23:33.679Z,100377.75
2023-03-11T15:26:04.141Z,100373.94
2023-03-11T15:28:33.736Z,100377.78
2023-03-11T15:31:18.914Z,100379.38
2023-03-11T15:33:46.857Z,100384.38
2023-03-11T15:36:31.360Z,100382.25
2023-03-11T15:39:13.721Z,100381.75
2023-03-11T15:41:43.425Z,100384.44
2023-03-11T15:44:25.105Z,100390.09
2023-03-11T15:46:53.060Z,100396.81
2023-03-11T15:49:21.087Z,100398.63
2023-03-11T15:51:48.540Z,100400.38
2023-03-11T15:54:16.005Z,100406.28
2023-03-11T15:56:44.968Z,100403.19
2023-03-11T15:59:16.555Z,100408.66
2023-03-11T16:01:43.992Z,100412.19
2023-03-11T16:04:14.529Z,100408.41
2023-03-11T16:06:43.000Z,100414.56
2023-03-11T16:09:11.579Z,100417.81
2023-03-11T16:11:40.045Z,100425.97
2023-03-11T16:14:15.553Z,100429.59
2023-03-11T16:16:43.145Z,100431.03
2023-03-11T16:19:10.706Z,100433.97
2023-03-11T16:21:42.268Z,100427.00
2023-03-11T16:24:17.271Z,100439.78
2023-03-11T16:26:44.708Z,100439.69
2023-03-11T16:29:19.438Z,100446.03
2023-03-11T16:31:49.173Z,100451.84
2023-03-11T16:34:16.592Z,100460.47
2023-03-11T16:36:44.003Z,100457.94
2023-03-11T16:39:11.448Z,100457.63
2023-03-11T16:41:42.776Z,100463.81
2023-03-11T16:44:10.658Z,100464.56
2023-03-11T16:46:39.609Z,100471.38
2023-03-11T16:49:07.305Z,100472.28
2023-03-11T16:51:34.991Z,100469.47
2023-03-11T16:54:02.394Z,100478.72
2023-03-11T16:56:29.828Z,100465.28
2023-03-11T16:58:57.327Z,100465.44
2023-03-11T17:01:24.957Z,100473.84
2023-03-11T17:03:54.028Z,100477.31
2023-03-11T17:06:22.201Z,100477.41
2023-03-11T17:08:50.797Z,100481.25
2023-03-11T17:11:19.983Z,100499.63
2023-03-11T17:13:47.724Z,100485.94
2023-03-11T17:16:15.513Z,100492.22
2023-03-11T17:18:43.331Z,100492.63
2023-03-11T17:21:14.238Z,100487.50
2023-03-11T17:23:41.942Z,100488.25
2023-03-11T17:26:11.122Z,100487.97
2023-03-11T17:28:40.000Z,100506.50
2023-03-11T17:31:11.654Z,100508.28
2023-03-11T17:33:39.127Z,100494.19
2023-03-11T17:36:08.515Z,100495.63
2023-03-11T17:38:37.289Z,100496.84
2023-03-11T17:41:08.783Z,100499.53
2023-03-11T17:43:36.710Z,100499.84
2023-03-11T17:46:07.857Z,100516.22
2023-03-11T17:48:35.630Z,100509.81
2023-03-11T17:51:06.505Z,100515.25
2023-03-11T17:53:35.798Z,100516.97
2023-03-11T17:56:06.554Z,100515.00
2023-03-11T17:58:34.659Z,100521.28
2023-03-11T18:01:04.650Z,100516.78
2023-03-11T18:03:32.093Z,100521.88
2023-03-11T18:06:00.949Z,100525.22
2023-03-11T18:08:28.937Z,100523.53
2023-03-11T18:11:02.021Z,100525.28
2023-03-11T18:13:31.889Z,100523.78
2023-03-11T18:16:00.765Z,100527.69
2023-03-11T18:18:28.701Z,100520.16
2023-03-11T18:20:56.268Z,100524.69
2023-03-11T18:23:23.864Z,100535.06
2023-03-11T18:25:51.800Z,100538.78
2023-03-11T18:28:19.471Z,100544.59
2023-03-11T18:30:48.317Z,100548.34
2023-03-11T18:33:15.756Z,100544.53
2023-03-11T18:35:43.248Z,100551.22
2023-03-11T18:38:11.410Z,100550.19
2023-03-11T18:40:39.213Z,100542.97
2023-03-11T18:43:07.627Z,100553.22
2023-03-11T18:45:35.212Z,100556.81
2023-03-11T18:48:03.988Z,100550.94
2023-03-11T18:50:31.427Z,100552.16
2023-03-11T18:52:59.937Z,100547.97
2023-03-11T18:55:27.476Z,100546.97
2023-03-11T18:57:54.898Z,100551.84
2023-03-11T19:00:23.702Z,100550.84
2023-03-11T19:02:52.467Z,100548.16
2023-03-11T19:05:22.494Z,100552.34
2023-03-11T19:07:49.937Z,100548.22
2023-03-11T19:10:20.030Z,100557.56
2023-03-11T19:12:47.493Z,100557.34
2023-03-11T19:15:14.954Z,100558.63
2023-03-11T19:17:42.460Z,100551.31
2023-03-11T19:20:11.402Z,100555.88
2023-03-11T19:22:40.350Z,100557.59
2023-03-11T19:25:08.349Z,100559.22
2023-03-11T19:27:38.927Z,100560.41
2023-03-11T19:30:07.888Z,100557.81
2023-03-11T19:32:35.353Z,100555.53
2023-03-11T19:35:02.831Z,100559.75
2023-03-11T19:37:31.155Z,100561.72
2023-03-11T19:39:59.894Z,100561.53
2023-03-11T19:42:27.356Z,100562.66
2023-03-11T19:44:55.910Z,100568.78
2023-03-11T19:47:24.684Z,100568.97
2023-03-11T19:49:52.208Z,100566.22
2023-03-11T19:52:19.806Z,100567.03
2023-03-11T19:54:47.268Z,100561.59
2023-03-11T19:57:16.766Z,100569.34
2023-03-11T19:59:44.515Z,100567.63
2023-03-11T20:02:12.875Z,100570.28
2023-03-11T20:04:43.085Z,100562.25
2023-03-11T20:07:10.925Z,100563.63
2023-03-11T20:09:38.483Z,100570.00
2023-03-11T20:12:06.336Z,100553.34
2023-03-11T20:14:35.074Z,100559.41
2023-03-11T20:17:02.584Z,100560.91
2023-03-11T20:19:30.130Z,100563.31
2023-03-11T20:21:57.584Z,100559.91
2023-03-11T20:24:25.233Z,100564.66
2023-03-11T20:26:52.674Z,100564.59
2023-03-11T20:29:20.785Z,100556.72
2023-03-11T20:31:49.674Z,100552.50
2023-03-11T20:34:17.345Z,100571.38
2023-03-11T20:36:44.818Z,100566.31
2023-03-11T20:39:12.353Z,100564.94
2023-03-11T20:41:41.464Z,100574.22
2023-03-11T20:44:12.167Z,100569.41
2023-03-11T20:46:40.039Z,100573.53
2023-03-11T20:49:09.314Z,100583.81
2023-03-11T20:51:38.140Z,100577.97
2023-03-11T20:54:06.580Z,100578.38
2023-03-11T20:56:34.024Z,100589.00
2023-03-11T20:59:01.763Z,100583.66
2023-03-11T21:01:30.743Z,100573.94
2023-03-11T21:04:01.281Z,100576.03
2023-03-11T21:06:31.918Z,100584.50
2023-03-11T21:09:01.965Z,100573.44
2023-03-11T21:11:30.069Z,100569.19
2023-03-11T21:13:57.826Z,100571.41
2023-03-11T21:16:26.919Z,100574.91
2023-03-11T21:18:55.074Z,100575.53
2023-03-11T21:21:22.838Z,100575.66
2023-03-11T21:23:51.678Z,100575.78
2023-03-11T21:26:19.534Z,100567.03
2023-03-11T21:28:47.315Z,100558.78
2023-03-11T21:31:17.909Z,100567.41
2023-03-11T21:33:45.925Z,100571.09
2023-03-11T21:36:15.035Z,100567.56
2023-03-11T21:38:43.242Z,100567.63
2023-03-11T21:41:14.434Z,100563.22
2023-03-11T21:43:43.469Z,100570.66
2023-03-11T21:46:14.147Z,100566.28
2023-03-11T21:48:42.205Z,100569.56
2023-03-11T21:51:09.957Z,100566.72
2023-03-11T21:53:37.894Z,100565.69
2023-03-11T21:56:06.234Z,100565.00
2023-03-11T21:58:35.549Z,100559.91
2023-03-11T22:01:04.026Z,100564.16
2023-03-11T22:03:35.347Z,100562.31
2023-03-11T22:06:04.989Z,100550.66
2023-03-11T22:08:32.660Z,100558.78
2023-03-11T22:11:00.524Z,100568.19
2023-03-11T22:13:28.169Z,100561.22
2023-03-11T22:15:57.053Z,100560.72
2023-03-11T22:18:24.648Z,100558.28
2023-03-11T22:20:52.422Z,100557.00
2023-03-11T22:23:19.866Z,100559.22
2023-03-11T22:25:47.352Z,100562.59
2023-03-11T22:28:14.791Z,100552.66
2023-03-11T22:30:42.219Z,100565.06
2023-03-11T22:33:11.032Z,100566.00
2023-03-11T22:35:38.577Z,100560.34
2023-03-11T22:38:06.042Z,100563.81
2023-03-11T22:40:34.960Z,100566.94
2023-03-11T22:43:02.406Z,100573.94
2023-03-11T22:45:29.842Z,100567.09
2023-03-11T22:47:57.300Z,100570.50
2023-03-11T22:50:26.309Z,100569.84
2023-03-11T22:52:53.730Z,100565.28
2023-03-11T22:55:21.328Z,100563.47
2023-03-11T22:57:48.814Z,100566.38
2023-03-11T23:00:20.835Z,100571.19
2023-03-11T23:02:52.797Z,100570.94
2023-03-11T23:05:20.323Z,100578.50
2023-03-11T23:07:49.788Z,100572.81
2023-03-11T23:10:21.226Z,100565.59
2023-03-11T23:12:49.592Z,100569.25
2023-03-11T23:15:19.048Z,100565.13
2023-03-11T23:17:46.555Z,100564.41
2023-03-11T23:20:16.116Z,100576.69
2023-03-11T23:22:44.619Z,100574.28
2023-03-11T23:25:15.942Z,100573.53
2023-03-11T23:27:44.696Z,100588.66
2023-03-11T23:30:14.556Z,100572.88
2023-03-11T23:32:42.274Z,100580.00
2023-03-11T23:35:10.467Z,100576.66
2023-03-11T23:37:38.034Z,100572.59
2023-03-11T23:40:06.750Z,100575.16
2023-03-11T23:42:36.152Z,100579.41
2023-03-11T23:45:04.184Z,100579.81
2023-03-11T23:47:31.723Z,100582.53
2023-03-11T23:49:59.149Z,100583.63
2023-03-11T23:52:26.741Z,100590.91
2023-03-11T23:54:54.295Z,100589.28
2023-03-11T23:57:21.815Z,100592.88
2023-03-11T23:59:50.579Z,100599.88
